sensor_id;sensor_type;location;lat;lon;timestamp;P1;durP1;ratioP1;P2;durP2;ratioP2
42006;SDS011;27696;42.704;23.304;2023-05-10T00:01:22;5.93;;;4.90;;
42006;SDS011;27696;42.704;23.304;2023-05-10T00:03:47;5.55;;;4.70;;
42006;SDS011;27696;42.704;23.304;2023-05-10T00:06:13;5.75;;;5.00;;
42006;SDS011;27696;42.704;23.304;2023-05-10T00:08:38;5.53;;;5.03;;
42006;SDS011;27696;42.704;23.304;2023-05-10T00:11:04;6.15;;;5.55;;
42006;SDS011;27696;42.704;23.304;2023-05-10T00:13:29;9.55;;;5.78;;
42006;SDS011;27696;42.704;23.304;2023-05-10T00:15:54;6.90;;;5.88;;
42006;SDS011;27696;42.704;23.304;2023-05-10T00:18:20;7.88;;;6.53;;
42006;SDS011;27696;42.704;23.304;2023-05-10T00:20:45;7.85;;;7.15;;
42006;SDS011;27696;42.704;23.304;2023-05-10T00:23:11;9.73;;;7.28;;
42006;SDS011;27696;42.704;23.304;2023-05-10T00:25:37;9.43;;;8.50;;
42006;SDS011;27696;42.704;23.304;2023-05-10T00:28:02;9.27;;;7.82;;
42006;SDS011;27696;42.704;23.304;2023-05-10T00:30:28;10.35;;;8.77;;
42006;SDS011;27696;42.704;23.304;2023-05-10T00:32:53;9.52;;;8.57;;
42006;SDS011;27696;42.704;23.304;2023-05-10T00:35:18;10.15;;;9.20;;
42006;SDS011;27696;42.704;23.304;2023-05-10T00:37:44;9.70;;;8.70;;
42006;SDS011;27696;42.704;23.304;2023-05-10T00:40:10;10.07;;;9.18;;
42006;SDS011;27696;42.704;23.304;2023-05-10T00:42:36;10.02;;;9.05;;
42006;SDS011;27696;42.704;23.304;2023-05-10T00:45:01;13.23;;;9.70;;
42006;SDS011;27696;42.704;23.304;2023-05-10T00:47:27;9.43;;;8.63;;
42006;SDS011;27696;42.704;23.304;2023-05-10T00:49:52;9.32;;;8.52;;
42006;SDS011;27696;42.704;23.304;2023-05-10T00:52:18;10.25;;;9.18;;
42006;SDS011;27696;42.704;23.304;2023-05-10T00:54:44;10.25;;;9.35;;
42006;SDS011;27696;42.704;23.304;2023-05-10T00:57:10;9.98;;;8.98;;
42006;SDS011;27696;42.704;23.304;2023-05-10T00:59:35;10.80;;;9.88;;
42006;SDS011;27696;42.704;23.304;2023-05-10T01:02:01;10.40;;;9.60;;
42006;SDS011;27696;42.704;23.304;2023-05-10T01:04:27;11.88;;;10.77;;
42006;SDS011;27696;42.704;23.304;2023-05-10T01:06:53;11.32;;;10.27;;
42006;SDS011;27696;42.704;23.304;2023-05-10T01:09:19;12.07;;;11.07;;
42006;SDS011;27696;42.704;23.304;2023-05-10T01:11:45;10.95;;;10.00;;
42006;SDS011;27696;42.704;23.304;2023-05-10T01:14:11;11.43;;;10.27;;
42006;SDS011;27696;42.704;23.304;2023-05-10T01:16:38;11.48;;;10.48;;
42006;SDS011;27696;42.704;23.304;2023-05-10T01:19:05;12.95;;;10.57;;
42006;SDS011;27696;42.704;23.304;2023-05-10T01:34:42;10.30;;;9.40;;
42006;SDS011;27696;42.704;23.304;2023-05-10T01:37:15;9.85;;;8.95;;
42006;SDS011;27696;42.704;23.304;2023-05-10T01:39:47;9.23;;;8.52;;
42006;SDS011;27696;42.704;23.304;2023-05-10T01:42:17;8.73;;;8.02;;
42006;SDS011;27696;42.704;23.304;2023-05-10T01:44:49;9.00;;;8.23;;
42006;SDS011;27696;42.704;23.304;2023-05-10T01:47:20;9.60;;;8.80;;
42006;SDS011;27696;42.704;23.304;2023-05-10T01:49:52;9.90;;;9.00;;
42006;SDS011;27696;42.704;23.304;2023-05-10T01:52:20;8.57;;;7.88;;
42006;SDS011;27696;42.704;23.304;2023-05-10T01:55:00;9.38;;;8.30;;
42006;SDS011;27696;42.704;23.304;2023-05-10T01:57:30;8.35;;;7.65;;
42006;SDS011;27696;42.704;23.304;2023-05-10T01:59:58;8.50;;;7.90;;
42006;SDS011;27696;42.704;23.304;2023-05-10T02:02:24;8.30;;;7.38;;
42006;SDS011;27696;42.704;23.304;2023-05-10T02:04:51;8.25;;;7.43;;
42006;SDS011;27696;42.704;23.304;2023-05-10T02:07:18;8.10;;;7.30;;
42006;SDS011;27696;42.704;23.304;2023-05-10T02:09:44;7.85;;;7.25;;
42006;SDS011;27696;42.704;23.304;2023-05-10T02:12:13;8.60;;;7.90;;
42006;SDS011;27696;42.704;23.304;2023-05-10T02:14:39;7.88;;;7.05;;
42006;SDS011;27696;42.704;23.304;2023-05-10T02:17:05;7.88;;;7.28;;
42006;SDS011;27696;42.704;23.304;2023-05-10T02:19:31;7.50;;;6.90;;
42006;SDS011;27696;42.704;23.304;2023-05-10T02:21:57;8.45;;;7.75;;
42006;SDS011;27696;42.704;23.304;2023-05-10T02:24:24;7.50;;;6.80;;
42006;SDS011;27696;42.704;23.304;2023-05-10T02:26:51;7.15;;;6.57;;
42006;SDS011;27696;42.704;23.304;2023-05-10T02:29:16;7.00;;;6.30;;
42006;SDS011;27696;42.704;23.304;2023-05-10T02:31:42;6.90;;;6.30;;
42006;SDS011;27696;42.704;23.304;2023-05-10T02:34:08;6.75;;;6.15;;
42006;SDS011;27696;42.704;23.304;2023-05-10T02:36:35;6.57;;;5.97;;
42006;SDS011;27696;42.704;23.304;2023-05-10T02:39:01;6.45;;;5.85;;
42006;SDS011;27696;42.704;23.304;2023-05-10T02:41:27;6.40;;;5.80;;
42006;SDS011;27696;42.704;23.304;2023-05-10T02:43:55;9.18;;;6.45;;
42006;SDS011;27696;42.704;23.304;2023-05-10T02:46:22;6.70;;;5.60;;
42006;SDS011;27696;42.704;23.304;2023-05-10T02:48:48;6.72;;;6.07;;
42006;SDS011;27696;42.704;23.304;2023-05-10T02:51:13;7.13;;;6.43;;
42006;SDS011;27696;42.704;23.304;2023-05-10T02:53:42;7.13;;;5.78;;
42006;SDS011;27696;42.704;23.304;2023-05-10T02:56:11;8.65;;;6.60;;
42006;SDS011;27696;42.704;23.304;2023-05-10T02:58:39;7.63;;;5.68;;
42006;SDS011;27696;42.704;23.304;2023-05-10T03:01:05;7.78;;;5.45;;
42006;SDS011;27696;42.704;23.304;2023-05-10T03:03:32;5.95;;;5.45;;
42006;SDS011;27696;42.704;23.304;2023-05-10T03:05:57;7.70;;;6.00;;
42006;SDS011;27696;42.704;23.304;2023-05-10T03:08:23;6.82;;;6.00;;
42006;SDS011;27696;42.704;23.304;2023-05-10T03:10:59;7.60;;;6.25;;
42006;SDS011;27696;42.704;23.304;2023-05-10T03:13:33;6.93;;;6.30;;
42006;SDS011;27696;42.704;23.304;2023-05-10T03:16:15;6.95;;;6.30;;
42006;SDS011;27696;42.704;23.304;2023-05-10T03:21:30;7.15;;;6.07;;
42006;SDS011;27696;42.704;23.304;2023-05-10T03:24:02;6.45;;;5.85;;
42006;SDS011;27696;42.704;23.304;2023-05-10T03:26:31;7.35;;;6.38;;
42006;SDS011;27696;42.704;23.304;2023-05-10T03:28:57;10.38;;;6.35;;
42006;SDS011;27696;42.704;23.304;2023-05-10T03:31:24;7.07;;;6.35;;
42006;SDS011;27696;42.704;23.304;2023-05-10T03:33:49;7.28;;;6.53;;
42006;SDS011;27696;42.704;23.304;2023-05-10T03:36:16;7.20;;;6.50;;
42006;SDS011;27696;42.704;23.304;2023-05-10T03:38:41;6.75;;;6.07;;
42006;SDS011;27696;42.704;23.304;2023-05-10T03:41:07;8.95;;;7.88;;
42006;SDS011;27696;42.704;23.304;2023-05-10T03:43:32;8.52;;;7.55;;
42006;SDS011;27696;42.704;23.304;2023-05-10T03:45:58;8.32;;;7.50;;
42006;SDS011;27696;42.704;23.304;2023-05-10T03:48:23;10.45;;;7.63;;
42006;SDS011;27696;42.704;23.304;2023-05-10T03:50:48;7.70;;;6.90;;
42006;SDS011;27696;42.704;23.304;2023-05-10T03:53:16;10.15;;;6.75;;
42006;SDS011;27696;42.704;23.304;2023-05-10T03:55:42;7.45;;;6.65;;
42006;SDS011;27696;42.704;23.304;2023-05-10T03:58:10;7.53;;;6.38;;
42006;SDS011;27696;42.704;23.304;2023-05-10T04:00:36;7.63;;;6.38;;
42006;SDS011;27696;42.704;23.304;2023-05-10T04:03:02;8.75;;;6.80;;
42006;SDS011;27696;42.704;23.304;2023-05-10T04:05:27;7.22;;;6.53;;
42006;SDS011;27696;42.704;23.304;2023-05-10T04:07:52;9.75;;;7.20;;
42006;SDS011;27696;42.704;23.304;2023-05-10T04:10:18;12.45;;;8.38;;
42006;SDS011;27696;42.704;23.304;2023-05-10T04:12:43;10.88;;;8.25;;
42006;SDS011;27696;42.704;23.304;2023-05-10T04:15:09;11.35;;;9.18;;
42006;SDS011;27696;42.704;23.304;2023-05-10T04:17:34;9.98;;;8.80;;
42006;SDS011;27696;42.704;23.304;2023-05-10T04:20:00;9.93;;;8.88;;
42006;SDS011;27696;42.704;23.304;2023-05-10T04:22:25;9.60;;;8.25;;
42006;SDS011;27696;42.704;23.304;2023-05-10T04:24:51;8.60;;;7.80;;
42006;SDS011;27696;42.704;23.304;2023-05-10T04:27:16;11.07;;;7.63;;
42006;SDS011;27696;42.704;23.304;2023-05-10T04:29:42;8.35;;;7.55;;
42006;SDS011;27696;42.704;23.304;2023-05-10T04:32:07;7.85;;;7.05;;
42006;SDS011;27696;42.704;23.304;2023-05-10T04:34:35;11.10;;;7.38;;
42006;SDS011;27696;42.704;23.304;2023-05-10T04:37:01;10.60;;;7.63;;
42006;SDS011;27696;42.704;23.304;2023-05-10T04:39:26;9.35;;;7.07;;
42006;SDS011;27696;42.704;23.304;2023-05-10T04:41:51;7.07;;;6.25;;
42006;SDS011;27696;42.704;23.304;2023-05-10T04:44:17;7.00;;;6.32;;
42006;SDS011;27696;42.704;23.304;2023-05-10T04:46:42;9.90;;;6.40;;
42006;SDS011;27696;42.704;23.304;2023-05-10T04:49:07;9.80;;;6.75;;
42006;SDS011;27696;42.704;23.304;2023-05-10T04:51:33;8.48;;;7.07;;
42006;SDS011;27696;42.704;23.304;2023-05-10T04:53:58;9.80;;;6.75;;
42006;SDS011;27696;42.704;23.304;2023-05-10T04:56:24;8.02;;;7.20;;
42006;SDS011;27696;42.704;23.304;2023-05-10T04:58:50;7.35;;;6.63;;
42006;SDS011;27696;42.704;23.304;2023-05-10T05:01:15;7.80;;;6.97;;
42006;SDS011;27696;42.704;23.304;2023-05-10T05:03:41;8.13;;;7.32;;
42006;SDS011;27696;42.704;23.304;2023-05-10T05:06:07;7.95;;;6.97;;
42006;SDS011;27696;42.704;23.304;2023-05-10T05:49:20;11.55;;;8.80;;
42006;SDS011;27696;42.704;23.304;2023-05-10T15:57:48;11.18;;;7.75;;
42006;SDS011;27696;42.704;23.304;2023-05-10T16:00:14;8.70;;;7.80;;
42006;SDS011;27696;42.704;23.304;2023-05-10T16:02:40;9.60;;;7.57;;
42006;SDS011;27696;42.704;23.304;2023-05-10T16:05:06;8.57;;;7.72;;
42006;SDS011;27696;42.704;23.304;2023-05-10T16:07:32;9.45;;;7.50;;
42006;SDS011;27696;42.704;23.304;2023-05-10T16:09:57;9.45;;;7.63;;
42006;SDS011;27696;42.704;23.304;2023-05-10T16:12:23;8.55;;;7.72;;
42006;SDS011;27696;42.704;23.304;2023-05-10T16:14:48;9.60;;;8.05;;
42006;SDS011;27696;42.704;23.304;2023-05-10T16:17:14;12.25;;;9.27;;
42006;SDS011;27696;42.704;23.304;2023-05-10T16:19:39;11.27;;;8.73;;
42006;SDS011;27696;42.704;23.304;2023-05-10T16:22:05;14.40;;;8.40;;
42006;SDS011;27696;42.704;23.304;2023-05-10T16:24:31;11.00;;;8.63;;
42006;SDS011;27696;42.704;23.304;2023-05-10T16:26:57;13.20;;;9.20;;
42006;SDS011;27696;42.704;23.304;2023-05-10T16:29:22;11.32;;;7.80;;
42006;SDS011;27696;42.704;23.304;2023-05-10T16:31:47;9.85;;;7.90;;
42006;SDS011;27696;42.704;23.304;2023-05-10T16:34:13;9.60;;;7.65;;
42006;SDS011;27696;42.704;23.304;2023-05-10T16:36:38;10.57;;;8.32;;
42006;SDS011;27696;42.704;23.304;2023-05-10T16:39:04;11.23;;;8.20;;
42006;SDS011;27696;42.704;23.304;2023-05-10T16:41:32;9.65;;;7.93;;
42006;SDS011;27696;42.704;23.304;2023-05-10T16:43:58;8.70;;;7.43;;
42006;SDS011;27696;42.704;23.304;2023-05-10T16:46:24;8.52;;;7.68;;
42006;SDS011;27696;42.704;23.304;2023-05-10T16:48:52;9.13;;;8.20;;
42006;SDS011;27696;42.704;23.304;2023-05-10T16:51:18;9.95;;;8.95;;
42006;SDS011;27696;42.704;23.304;2023-05-10T16:53:43;8.88;;;7.72;;
42006;SDS011;27696;42.704;23.304;2023-05-10T16:56:09;9.95;;;8.50;;
42006;SDS011;27696;42.704;23.304;2023-05-10T16:58:34;15.05;;;10.00;;
42006;SDS011;27696;42.704;23.304;2023-05-10T17:01:00;11.88;;;9.60;;
42006;SDS011;27696;42.704;23.304;2023-05-10T17:03:25;15.70;;;9.07;;
42006;SDS011;27696;42.704;23.304;2023-05-10T17:05:51;15.60;;;11.13;;
42006;SDS011;27696;42.704;23.304;2023-05-10T17:08:19;11.68;;;9.65;;
42006;SDS011;27696;42.704;23.304;2023-05-10T17:10:44;12.10;;;9.68;;
42006;SDS011;27696;42.704;23.304;2023-05-10T17:13:10;11.05;;;9.20;;
42006;SDS011;27696;42.704;23.304;2023-05-10T17:15:35;10.73;;;8.93;;
42006;SDS011;27696;42.704;23.304;2023-05-10T17:18:02;13.02;;;9.32;;
42006;SDS011;27696;42.704;23.304;2023-05-10T17:20:27;10.70;;;8.23;;
42006;SDS011;27696;42.704;23.304;2023-05-10T17:22:53;10.23;;;9.00;;
42006;SDS011;27696;42.704;23.304;2023-05-10T17:25:18;12.23;;;8.73;;
42006;SDS011;27696;42.704;23.304;2023-05-10T17:27:44;9.93;;;9.00;;
42006;SDS011;27696;42.704;23.304;2023-05-10T17:30:09;9.77;;;8.60;;
42006;SDS011;27696;42.704;23.304;2023-05-10T17:32:35;12.30;;;8.35;;
42006;SDS011;27696;42.704;23.304;2023-05-10T17:35:01;10.13;;;8.60;;
42006;SDS011;27696;42.704;23.304;2023-05-10T17:37:27;10.05;;;7.60;;
42006;SDS011;27696;42.704;23.304;2023-05-10T17:39:53;12.57;;;8.05;;
42006;SDS011;27696;42.704;23.304;2023-05-10T17:42:19;10.10;;;8.10;;
42006;SDS011;27696;42.704;23.304;2023-05-10T17:44:44;12.25;;;8.40;;
42006;SDS011;27696;42.704;23.304;2023-05-10T17:47:10;11.15;;;8.50;;
42006;SDS011;27696;42.704;23.304;2023-05-10T17:49:35;10.55;;;8.30;;
42006;SDS011;27696;42.704;23.304;2023-05-10T17:52:01;9.88;;;7.82;;
42006;SDS011;27696;42.704;23.304;2023-05-10T17:54:26;11.60;;;8.05;;
42006;SDS011;27696;42.704;23.304;2023-05-10T17:56:52;8.48;;;7.65;;
42006;SDS011;27696;42.704;23.304;2023-05-10T17:59:17;9.32;;;7.43;;
42006;SDS011;27696;42.704;23.304;2023-05-10T18:01:43;12.00;;;7.47;;
42006;SDS011;27696;42.704;23.304;2023-05-10T18:04:08;10.05;;;8.07;;
42006;SDS011;27696;42.704;23.304;2023-05-10T18:06:36;11.30;;;7.47;;
42006;SDS011;27696;42.704;23.304;2023-05-10T18:09:02;9.27;;;7.50;;
42006;SDS011;27696;42.704;23.304;2023-05-10T18:11:29;9.38;;;7.55;;
42006;SDS011;27696;42.704;23.304;2023-05-10T18:13:54;11.35;;;8.02;;
42006;SDS011;27696;42.704;23.304;2023-05-10T18:16:20;8.77;;;7.50;;
42006;SDS011;27696;42.704;23.304;2023-05-10T18:18:45;8.15;;;7.13;;
42006;SDS011;27696;42.704;23.304;2023-05-10T18:21:11;10.30;;;7.90;;
42006;SDS011;27696;42.704;23.304;2023-05-10T18:23:38;8.20;;;7.43;;
42006;SDS011;27696;42.704;23.304;2023-05-10T18:26:04;10.13;;;7.00;;
42006;SDS011;27696;42.704;23.304;2023-05-10T18:28:35;9.38;;;7.13;;
42006;SDS011;27696;42.704;23.304;2023-05-10T18:31:00;8.48;;;7.53;;
42006;SDS011;27696;42.704;23.304;2023-05-10T18:33:26;12.57;;;7.60;;
42006;SDS011;27696;42.704;23.304;2023-05-10T18:35:52;9.82;;;7.15;;
42006;SDS011;27696;42.704;23.304;2023-05-10T18:38:17;7.88;;;7.07;;
42006;SDS011;27696;42.704;23.304;2023-05-10T18:40:43;10.35;;;7.57;;
42006;SDS011;27696;42.704;23.304;2023-05-10T18:43:09;9.77;;;8.77;;
42006;SDS011;27696;42.704;23.304;2023-05-10T18:45:36;9.35;;;8.35;;
42006;SDS011;27696;42.704;23.304;2023-05-10T18:48:03;10.75;;;8.00;;
42006;SDS011;27696;42.704;23.304;2023-05-10T18:50:29;10.43;;;7.88;;
42006;SDS011;27696;42.704;23.304;2023-05-10T18:52:54;10.77;;;7.80;;
42006;SDS011;27696;42.704;23.304;2023-05-10T18:55:23;9.45;;;8.10;;
42006;SDS011;27696;42.704;23.304;2023-05-10T18:57:49;12.27;;;7.80;;
42006;SDS011;27696;42.704;23.304;2023-05-10T19:00:15;10.27;;;7.95;;
42006;SDS011;27696;42.704;23.304;2023-05-10T19:02:43;12.07;;;8.50;;
42006;SDS011;27696;42.704;23.304;2023-05-10T19:05:08;9.90;;;8.23;;
42006;SDS011;27696;42.704;23.304;2023-05-10T19:07:34;10.80;;;8.40;;
42006;SDS011;27696;42.704;23.304;2023-05-10T19:09:59;9.40;;;8.40;;
42006;SDS011;27696;42.704;23.304;2023-05-10T19:12:25;9.95;;;7.95;;
42006;SDS011;27696;42.704;23.304;2023-05-10T19:14:50;10.30;;;9.15;;
42006;SDS011;27696;42.704;23.304;2023-05-10T19:17:16;9.38;;;8.48;;
42006;SDS011;27696;42.704;23.304;2023-05-10T19:19:41;9.60;;;8.27;;
42006;SDS011;27696;42.704;23.304;2023-05-10T19:22:07;9.65;;;8.52;;
42006;SDS011;27696;42.704;23.304;2023-05-10T19:24:32;9.48;;;8.57;;
42006;SDS011;27696;42.704;23.304;2023-05-10T19:26:58;13.30;;;9.95;;
42006;SDS011;27696;42.704;23.304;2023-05-10T19:29:24;9.48;;;8.23;;
42006;SDS011;27696;42.704;23.304;2023-05-10T19:31:50;14.40;;;8.88;;
42006;SDS011;27696;42.704;23.304;2023-05-10T19:34:16;11.35;;;8.68;;
42006;SDS011;27696;42.704;23.304;2023-05-10T19:36:41;10.93;;;8.20;;
42006;SDS011;27696;42.704;23.304;2023-05-10T19:39:07;9.90;;;8.90;;
42006;SDS011;27696;42.704;23.304;2023-05-10T19:41:32;10.00;;;8.98;;
42006;SDS011;27696;42.704;23.304;2023-05-10T19:43:58;10.35;;;8.98;;
42006;SDS011;27696;42.704;23.304;2023-05-10T19:46:23;10.60;;;9.60;;
42006;SDS011;27696;42.704;23.304;2023-05-10T19:48:49;11.73;;;9.30;;
42006;SDS011;27696;42.704;23.304;2023-05-10T19:51:14;11.07;;;9.98;;
42006;SDS011;27696;42.704;23.304;2023-05-10T19:53:40;10.70;;;9.68;;
42006;SDS011;27696;42.704;23.304;2023-05-10T19:56:08;11.40;;;9.70;;
42006;SDS011;27696;42.704;23.304;2023-05-10T19:58:34;10.07;;;9.18;;
42006;SDS011;27696;42.704;23.304;2023-05-10T20:01:00;14.07;;;9.73;;
42006;SDS011;27696;42.704;23.304;2023-05-10T20:03:25;10.95;;;9.05;;
42006;SDS011;27696;42.704;23.304;2023-05-10T20:05:51;11.95;;;9.18;;
42006;SDS011;27696;42.704;23.304;2023-05-10T20:08:16;11.13;;;10.02;;
42006;SDS011;27696;42.704;23.304;2023-05-10T20:10:42;12.48;;;9.52;;
42006;SDS011;27696;42.704;23.304;2023-05-10T20:13:07;11.25;;;9.65;;
42006;SDS011;27696;42.704;23.304;2023-05-10T20:15:33;11.65;;;10.40;;
42006;SDS011;27696;42.704;23.304;2023-05-10T20:18:01;13.10;;;10.57;;
42006;SDS011;27696;42.704;23.304;2023-05-10T20:20:27;12.85;;;10.27;;
42006;SDS011;27696;42.704;23.304;2023-05-10T20:22:53;11.80;;;10.57;;
42006;SDS011;27696;42.704;23.304;2023-05-10T20:25:18;11.73;;;10.55;;
42006;SDS011;27696;42.704;23.304;2023-05-10T20:27:44;13.80;;;11.73;;
42006;SDS011;27696;42.704;23.304;2023-05-10T20:30:10;13.43;;;11.00;;
42006;SDS011;27696;42.704;23.304;2023-05-10T20:32:36;13.32;;;11.52;;
42006;SDS011;27696;42.704;23.304;2023-05-10T20:35:02;15.60;;;11.60;;
42006;SDS011;27696;42.704;23.304;2023-05-10T20:37:28;15.93;;;11.57;;
42006;SDS011;27696;42.704;23.304;2023-05-10T20:39:53;13.80;;;12.50;;
42006;SDS011;27696;42.704;23.304;2023-05-10T20:42:20;15.50;;;12.63;;
42006;SDS011;27696;42.704;23.304;2023-05-10T20:44:46;16.30;;;12.23;;
42006;SDS011;27696;42.704;23.304;2023-05-10T20:47:12;14.45;;;13.05;;
42006;SDS011;27696;42.704;23.304;2023-05-10T20:49:38;13.48;;;12.13;;
42006;SDS011;27696;42.704;23.304;2023-05-10T20:52:04;13.50;;;12.13;;
42006;SDS011;27696;42.704;23.304;2023-05-10T20:54:30;13.57;;;11.77;;
42006;SDS011;27696;42.704;23.304;2023-05-10T20:56:55;13.77;;;12.38;;
42006;SDS011;27696;42.704;23.304;2023-05-10T20:59:21;17.17;;;11.85;;
42006;SDS011;27696;42.704;23.304;2023-05-10T21:01:46;13.73;;;12.15;;
42006;SDS011;27696;42.704;23.304;2023-05-10T21:04:12;12.52;;;11.35;;
42006;SDS011;27696;42.704;23.304;2023-05-10T21:06:38;16.75;;;12.60;;
42006;SDS011;27696;42.704;23.304;2023-05-10T21:09:03;13.77;;;12.05;;
42006;SDS011;27696;42.704;23.304;2023-05-10T21:11:29;13.45;;;12.05;;
42006;SDS011;27696;42.704;23.304;2023-05-10T21:13:55;13.15;;;11.82;;
42006;SDS011;27696;42.704;23.304;2023-05-10T21:16:20;15.00;;;12.05;;
42006;SDS011;27696;42.704;23.304;2023-05-10T21:18:46;13.43;;;12.23;;
42006;SDS011;27696;42.704;23.304;2023-05-10T21:21:11;13.98;;;12.50;;
42006;SDS011;27696;42.704;23.304;2023-05-10T21:23:37;13.23;;;11.93;;
42006;SDS011;27696;42.704;23.304;2023-05-10T21:26:02;13.48;;;12.07;;
42006;SDS011;27696;42.704;23.304;2023-05-10T21:28:28;16.65;;;12.35;;
42006;SDS011;27696;42.704;23.304;2023-05-10T21:30:53;12.45;;;11.35;;
42006;SDS011;27696;42.704;23.304;2023-05-10T21:33:19;13.98;;;12.15;;
42006;SDS011;27696;42.704;23.304;2023-05-10T21:35:44;14.27;;;12.02;;
42006;SDS011;27696;42.704;23.304;2023-05-10T21:38:10;13.77;;;11.85;;
42006;SDS011;27696;42.704;23.304;2023-05-10T21:40:36;13.55;;;11.32;;
42006;SDS011;27696;42.704;23.304;2023-05-10T21:43:02;12.95;;;11.02;;
42006;SDS011;27696;42.704;23.304;2023-05-10T21:45:28;12.65;;;11.45;;
42006;SDS011;27696;42.704;23.304;2023-05-10T21:47:56;12.13;;;11.02;;
42006;SDS011;27696;42.704;23.304;2023-05-10T21:50:25;11.32;;;10.32;;
42006;SDS011;27696;42.704;23.304;2023-05-10T21:52:51;11.23;;;9.90;;
42006;SDS011;27696;42.704;23.304;2023-05-10T21:55:17;13.70;;;10.68;;
42006;SDS011;27696;42.704;23.304;2023-05-10T21:57:43;11.20;;;10.13;;
42006;SDS011;27696;42.704;23.304;2023-05-10T22:00:09;11.40;;;10.27;;
42006;SDS011;27696;42.704;23.304;2023-05-10T22:02:35;11.90;;;10.82;;
42006;SDS011;27696;42.704;23.304;2023-05-10T22:05:00;12.50;;;10.82;;
42006;SDS011;27696;42.704;23.304;2023-05-10T22:07:26;11.23;;;10.13;;
42006;SDS011;27696;42.704;23.304;2023-05-10T22:09:52;10.82;;;9.93;;
42006;SDS011;27696;42.704;23.304;2023-05-10T22:12:17;11.40;;;10.35;;
42006;SDS011;27696;42.704;23.304;2023-05-10T22:14:42;11.88;;;10.68;;
42006;SDS011;27696;42.704;23.304;2023-05-10T22:17:08;11.57;;;10.27;;
42006;SDS011;27696;42.704;23.304;2023-05-10T22:19:33;13.35;;;9.90;;
42006;SDS011;27696;42.704;23.304;2023-05-10T22:21:59;12.57;;;10.68;;
42006;SDS011;27696;42.704;23.304;2023-05-10T22:24:24;12.10;;;10.80;;
42006;SDS011;27696;42.704;23.304;2023-05-10T22:26:52;10.57;;;9.63;;
42006;SDS011;27696;42.704;23.304;2023-05-10T22:29:18;11.85;;;10.73;;
42006;SDS011;27696;42.704;23.304;2023-05-10T22:31:43;11.70;;;10.60;;
42006;SDS011;27696;42.704;23.304;2023-05-10T22:34:09;11.70;;;10.50;;
42006;SDS011;27696;42.704;23.304;2023-05-10T22:36:34;12.38;;;11.18;;
42006;SDS011;27696;42.704;23.304;2023-05-10T22:39:00;13.05;;;10.52;;
42006;SDS011;27696;42.704;23.304;2023-05-10T22:41:25;12.35;;;11.13;;
42006;SDS011;27696;42.704;23.304;2023-05-10T22:43:51;12.52;;;10.18;;
42006;SDS011;27696;42.704;23.304;2023-05-10T22:46:16;12.63;;;11.38;;
42006;SDS011;27696;42.704;23.304;2023-05-10T22:48:42;12.82;;;11.10;;
42006;SDS011;27696;42.704;23.304;2023-05-10T22:51:07;12.00;;;10.88;;
42006;SDS011;27696;42.704;23.304;2023-05-10T22:53:33;12.15;;;10.73;;
42006;SDS011;27696;42.704;23.304;2023-05-10T22:55:58;12.40;;;10.23;;
42006;SDS011;27696;42.704;23.304;2023-05-10T22:58:24;11.73;;;10.25;;
42006;SDS011;27696;42.704;23.304;2023-05-10T23:00:50;10.90;;;9.85;;
42006;SDS011;27696;42.704;23.304;2023-05-10T23:03:15;12.18;;;10.23;;
42006;SDS011;27696;42.704;23.304;2023-05-10T23:05:41;12.38;;;10.43;;
42006;SDS011;27696;42.704;23.304;2023-05-10T23:08:06;11.05;;;9.70;;
42006;SDS011;27696;42.704;23.304;2023-05-10T23:10:31;11.25;;;10.15;;
42006;SDS011;27696;42.704;23.304;2023-05-10T23:12:57;12.65;;;10.07;;
42006;SDS011;27696;42.704;23.304;2023-05-10T23:15:22;13.10;;;10.10;;
42006;SDS011;27696;42.704;23.304;2023-05-10T23:17:48;10.30;;;9.30;;
42006;SDS011;27696;42.704;23.304;2023-05-10T23:20:13;10.10;;;9.13;;
42006;SDS011;27696;42.704;23.304;2023-05-10T23:22:39;10.00;;;9.10;;
42006;SDS011;27696;42.704;23.304;2023-05-10T23:25:05;8.90;;;8.10;;
42006;SDS011;27696;42.704;23.304;2023-05-10T23:27:31;9.48;;;8.68;;
42006;SDS011;27696;42.704;23.304;2023-05-10T23:29:56;11.32;;;8.13;;
42006;SDS011;27696;42.704;23.304;2023-05-10T23:32:22;11.32;;;8.32;;
42006;SDS011;27696;42.704;23.304;2023-05-10T23:34:47;8.25;;;7.45;;
42006;SDS011;27696;42.704;23.304;2023-05-10T23:37:13;11.57;;;7.43;;
42006;SDS011;27696;42.704;23.304;2023-05-10T23:39:38;8.20;;;7.22;;
42006;SDS011;27696;42.704;23.304;2023-05-10T23:42:04;8.13;;;7.13;;
42006;SDS011;27696;42.704;23.304;2023-05-10T23:44:30;8.27;;;7.47;;
42006;SDS011;27696;42.704;23.304;2023-05-10T23:46:55;9.43;;;7.40;;
42006;SDS011;27696;42.704;23.304;2023-05-10T23:49:21;8.25;;;6.78;;
42006;SDS011;27696;42.704;23.304;2023-05-10T23:51:47;7.22;;;6.50;;
42006;SDS011;27696;42.704;23.304;2023-05-10T23:54:13;9.55;;;6.90;;
42006;SDS011;27696;42.704;23.304;2023-05-10T23:56:38;7.13;;;6.43;;
42006;SDS011;27696;42.704;23.304;2023-05-10T23:59:03;7.93;;;6.93;;
